createdAt,value
2018-11-27T00:01:14.146Z,0.00
2018-11-27T00:02:18.149Z,0.00
2018-11-27T00:02:53.642Z,0.00
2018-11-27T00:03:59.642Z,0.00
2018-11-27T00:04:53.641Z,0.00
2018-11-27T00:07:29.363Z,0.00
2018-11-27T00:08:25.870Z,0.00
2018-11-27T00:09:25.875Z,0.00
2018-11-27T00:10:25.867Z,0.00
2018-11-27T00:11:47.369Z,0.00
2018-11-27T00:12:50.873Z,0.00
2018-11-27T00:13:26.367Z,0.00
2018-11-27T00:14:26.367Z,0.00
2018-11-27T00:16:58.085Z,0.00
2018-11-27T00:18:01.096Z,0.00
2018-11-27T00:18:58.095Z,0.00
2018-11-27T00:19:58.592Z,0.00
2018-11-27T00:20:57.807Z,0.00
2018-11-27T00:21:58.593Z,0.00
2018-11-27T00:23:04.026Z,0.00
2018-11-27T00:23:58.603Z,0.00
2018-11-27T00:24:59.098Z,0.00
2018-11-27T00:27:30.451Z,0.00
2018-11-27T00:28:33.952Z,0.00
2018-11-27T00:29:30.451Z,0.00
2018-11-27T00:30:30.950Z,0.00
2018-11-27T00:31:30.950Z,0.00
2018-11-27T00:32:30.957Z,0.00
2018-11-27T00:33:30.950Z,0.00
2018-11-27T00:34:34.949Z,0.00
2018-11-27T00:35:31.461Z,0.00
2018-11-27T00:36:31.456Z,0.00
2018-11-27T00:37:37.384Z,0.00
2018-11-27T00:38:52.950Z,0.00
2018-11-27T00:39:31.949Z,0.00
2018-11-27T00:40:35.958Z,0.00
2018-11-27T00:41:52.953Z,0.00
2018-11-27T00:42:32.451Z,0.00
2018-11-27T00:43:32.450Z,0.00
2018-11-27T00:44:32.450Z,0.00
2018-11-27T00:45:32.449Z,0.00
2018-11-27T00:46:35.949Z,0.00
2018-11-27T00:47:33.394Z,0.00
2018-11-27T00:48:32.959Z,0.00
2018-11-27T00:49:32.949Z,0.00
2018-11-27T00:50:32.947Z,0.00
2018-11-27T00:51:57.949Z,0.00
2018-11-27T00:52:33.454Z,0.00
2018-11-27T00:53:33.450Z,0.00
2018-11-27T00:54:33.448Z,0.00
2018-11-27T00:57:08.666Z,0.00
2018-11-27T01:02:14.945Z,0.00
2018-11-27T01:03:10.511Z,0.00
2018-11-27T01:04:12.452Z,0.00
2018-11-27T01:05:32.010Z,0.00
2018-11-27T01:06:11.950Z,0.00
2018-11-27T01:07:15.010Z,0.00
2018-11-27T01:08:13.445Z,0.00
2018-11-27T01:09:11.010Z,0.00
2018-11-27T01:11:42.012Z,0.00
2018-11-27T01:13:07.737Z,0.00
2018-11-27T01:13:56.745Z,0.00
2018-11-27T01:15:04.236Z,0.00
2018-11-27T01:15:43.239Z,0.00
2018-11-27T01:16:44.690Z,0.00
2018-11-27T01:17:43.235Z,0.00
2018-11-27T01:18:46.744Z,0.00
2018-11-27T01:19:43.736Z,0.00
2018-11-27T01:22:36.079Z,0.00
2018-11-27T01:23:15.088Z,0.00
2018-11-27T01:24:40.129Z,0.00
2018-11-27T01:25:36.594Z,0.00
2018-11-27T01:26:36.587Z,0.00
2018-11-27T01:27:15.587Z,0.00
2018-11-27T01:28:15.587Z,0.00
2018-11-27T01:29:40.589Z,0.00
2018-11-27T01:31:48.404Z,0.00
2018-11-27T01:32:49.394Z,0.00
2018-11-27T01:33:48.879Z,0.00
2018-11-27T01:34:50.945Z,0.00
2018-11-27T01:36:08.944Z,0.00
2018-11-27T01:37:08.944Z,0.00
2018-11-27T01:38:08.947Z,0.00
2018-11-27T01:39:09.445Z,0.00
2018-11-27T01:40:14.883Z,0.00
2018-11-27T01:40:48.444Z,0.00
2018-11-27T01:42:09.464Z,0.00
2018-11-27T01:42:48.455Z,0.00
2018-11-27T01:45:44.681Z,0.00
2018-11-27T01:46:41.681Z,0.00
2018-11-27T01:47:20.676Z,0.00
2018-11-27T01:48:41.127Z,0.00
2018-11-27T01:49:42.185Z,0.00
2018-11-27T01:51:56.909Z,0.00
2018-11-27T01:52:56.923Z,0.00
2018-11-27T01:53:56.927Z,0.00
2018-11-27T01:54:56.919Z,0.00
2018-11-27T01:57:31.070Z,0.00
2018-11-27T01:58:32.513Z,0.00
2018-11-27T01:59:31.071Z,0.00
2018-11-27T02:00:31.071Z,0.00
2018-11-27T02:01:35.072Z,0.00
2018-11-27T02:02:52.571Z,0.00
2018-11-27T02:03:31.571Z,0.00
2018-11-27T02:04:52.571Z,0.00
2018-11-27T02:05:32.070Z,0.00
2018-11-27T02:06:56.571Z,0.00
2018-11-27T02:07:32.070Z,0.00
2018-11-27T02:08:32.071Z,0.00
2018-11-27T02:09:32.574Z,0.00
2018-11-27T02:10:34.007Z,0.00
2018-11-27T02:11:32.570Z,0.00
2018-11-27T02:12:38.029Z,0.00
2018-11-27T02:15:04.251Z,0.00
2018-11-27T02:16:04.258Z,0.00
2018-11-27T02:17:04.262Z,0.00
2018-11-27T02:19:40.925Z,0.00
2018-11-27T02:20:39.991Z,0.00
2018-11-27T02:21:39.991Z,0.00
2018-11-27T02:22:40.507Z,0.00
2018-11-27T02:23:43.488Z,0.00
2018-11-27T02:24:40.495Z,0.00
2018-11-27T02:25:40.489Z,0.00
2018-11-27T02:26:40.991Z,0.00
2018-11-27T02:28:01.991Z,0.00
2018-11-27T02:31:51.139Z,0.00
2018-11-27T02:33:09.239Z,0.00
2018-11-27T02:33:52.208Z,0.00
2018-11-27T02:35:09.199Z,0.00
2018-11-27T02:36:09.706Z,0.00
2018-11-27T02:36:48.704Z,0.00
2018-11-27T02:37:48.703Z,0.00
2018-11-27T02:38:48.703Z,0.00
2018-11-27T02:39:52.213Z,0.00
2018-11-27T02:41:10.208Z,0.00
2018-11-27T02:41:50.721Z,0.00
2018-11-27T02:43:10.204Z,0.00
2018-11-27T02:45:45.803Z,0.00
2018-11-27T02:46:41.810Z,0.00
2018-11-27T02:47:20.811Z,0.00
2018-11-27T02:48:21.315Z,0.00
2018-11-27T02:49:21.312Z,0.00
2018-11-27T02:50:21.309Z,0.00
2018-11-27T02:55:58.742Z,0.00
2018-11-27T02:57:03.681Z,0.00
2018-11-27T02:57:58.741Z,0.00
2018-11-27T03:00:29.750Z,0.00
2018-11-27T03:01:30.481Z,0.00
2018-11-27T03:04:29.362Z,0.00
2018-11-27T03:05:05.430Z,0.00
2018-11-27T03:07:41.089Z,0.00
2018-11-27T03:08:58.155Z,0.00
2018-11-27T03:09:41.588Z,0.00
2018-11-27T03:10:43.655Z,0.00
2018-11-27T03:11:51.654Z,0.00
2018-11-27T03:12:55.655Z,0.00
2018-11-27T03:13:38.595Z,0.00
2018-11-27T03:14:59.154Z,0.00
2018-11-27T03:15:38.164Z,0.00
2018-11-27T03:18:16.583Z,0.00
2018-11-27T03:19:09.641Z,0.00
2018-11-27T03:20:09.640Z,0.00
2018-11-27T03:21:10.144Z,0.00
2018-11-27T03:22:10.140Z,0.00
2018-11-27T03:24:46.540Z,0.00
2018-11-27T03:25:45.621Z,0.00
2018-11-27T03:28:20.352Z,0.00
2018-11-27T03:29:17.351Z,0.00
2018-11-27T03:30:17.466Z,0.00
2018-11-27T03:33:10.075Z,0.00
2018-11-27T03:33:53.081Z,0.00
2018-11-27T03:34:58.517Z,0.00
2018-11-27T03:38:56.222Z,0.00
2018-11-27T03:39:52.229Z,0.00
2018-11-27T03:40:55.167Z,0.00
2018-11-27T03:44:59.367Z,0.00
2018-11-27T03:46:16.374Z,0.00
2018-11-27T03:46:55.380Z,0.00
2018-11-27T03:49:27.100Z,0.00
2018-11-27T03:55:26.681Z,0.00
2018-11-27T03:56:09.690Z,0.00
2018-11-27T03:57:05.691Z,0.00
2018-11-27T04:01:34.859Z,0.00
2018-11-27T04:02:10.375Z,0.00
2018-11-27T04:03:10.367Z,0.00
2018-11-27T04:04:11.823Z,0.00
2018-11-27T04:05:10.867Z,0.00
2018-11-27T04:06:12.324Z,0.00
2018-11-27T04:07:16.331Z,0.00
2018-11-27T04:08:10.866Z,0.00
2018-11-27T04:09:10.867Z,0.00
2018-11-27T04:10:11.366Z,0.00
2018-11-27T04:11:32.368Z,0.00
2018-11-27T04:12:11.366Z,0.00
2018-11-27T04:13:35.867Z,0.00
2018-11-27T04:14:11.867Z,0.00
2018-11-27T04:16:43.210Z,0.00
2018-11-27T04:17:43.218Z,0.00
2018-11-27T04:18:47.217Z,0.00
2018-11-27T04:21:35.937Z,0.00
2018-11-27T04:22:14.944Z,0.00
2018-11-27T04:24:50.671Z,0.00
2018-11-27T04:25:46.679Z,0.00
2018-11-27T04:26:46.670Z,0.00
2018-11-27T04:27:47.179Z,0.00
2018-11-27T04:29:08.173Z,0.00
2018-11-27T04:30:12.177Z,0.00
2018-11-27T04:30:47.171Z,0.00
2018-11-27T04:33:18.889Z,0.00
2018-11-27T04:34:18.898Z,0.00
2018-11-27T04:36:53.631Z,0.00
2018-11-27T04:37:55.568Z,0.00
2018-11-27T04:38:55.601Z,0.00
2018-11-27T04:40:15.135Z,0.00
2018-11-27T04:42:29.296Z,0.00
2018-11-27T04:43:29.302Z,0.00
2018-11-27T04:44:29.298Z,0.00
2018-11-27T04:45:50.798Z,0.00
2018-11-27T04:46:35.254Z,0.00
2018-11-27T04:47:29.805Z,0.00
2018-11-27T04:48:29.800Z,0.00
2018-11-27T04:49:50.798Z,0.00
2018-11-27T04:52:06.482Z,0.00
2018-11-27T04:53:01.546Z,0.00
2018-11-27T04:54:01.531Z,0.00
2018-11-27T04:55:02.031Z,0.00
2018-11-27T04:56:02.075Z,0.00
2018-11-27T04:57:02.029Z,0.00
2018-11-27T04:59:38.169Z,0.00
2018-11-27T05:00:37.620Z,0.00
2018-11-27T05:01:37.623Z,0.00
2018-11-27T05:04:13.343Z,0.00
2018-11-27T05:05:09.849Z,0.00
2018-11-27T05:06:09.848Z,0.00
2018-11-27T05:07:09.848Z,0.00
2018-11-27T05:13:08.760Z,0.00
2018-11-27T05:13:47.767Z,0.00
2018-11-27T05:15:14.701Z,0.00
2018-11-27T05:16:09.267Z,0.00
2018-11-27T05:18:19.622Z,0.00
2018-11-27T05:19:40.622Z,0.00
2018-11-27T05:20:23.628Z,0.00
2018-11-27T05:21:41.143Z,0.00
2018-11-27T05:22:20.124Z,0.00
2018-11-27T05:23:41.124Z,0.00
2018-11-27T05:24:20.123Z,0.00
2018-11-27T05:25:46.060Z,0.00
2018-11-27T05:26:20.624Z,0.00
2018-11-27T05:29:12.966Z,0.00
2018-11-27T05:29:51.975Z,0.00
2018-11-27T05:31:16.476Z,0.00
2018-11-27T05:31:52.479Z,0.00
2018-11-27T05:33:13.481Z,0.00
2018-11-27T05:33:52.475Z,0.00
2018-11-27T05:34:52.475Z,0.00
2018-11-27T05:35:57.909Z,0.00
2018-11-27T05:36:52.975Z,0.00
2018-11-27T05:38:13.976Z,0.00
2018-11-27T05:38:52.979Z,0.00
2018-11-27T05:39:53.470Z,0.00
2018-11-27T05:40:53.474Z,0.00
2018-11-27T05:43:28.174Z,0.00
2018-11-27T05:44:49.178Z,0.00
2018-11-27T05:45:28.178Z,0.00
2018-11-27T05:46:49.684Z,0.00
2018-11-27T05:47:32.180Z,0.00
2018-11-27T05:48:29.613Z,0.00
2018-11-27T05:49:28.679Z,0.00
2018-11-27T05:50:30.116Z,0.00
2018-11-27T05:51:31.613Z,0.00
2018-11-27T05:52:53.680Z,0.00
2018-11-27T05:53:29.180Z,0.00
2018-11-27T05:56:00.902Z,0.00
2018-11-27T05:57:00.902Z,0.00
2018-11-27T05:58:25.910Z,0.00
2018-11-27T05:59:22.402Z,0.00
2018-11-27T06:00:28.401Z,0.00
2018-11-27T06:01:16.835Z,0.00
2018-11-27T06:02:22.401Z,0.00
2018-11-27T06:03:26.403Z,0.00
2018-11-27T06:07:10.971Z,0.00
2018-11-27T06:08:35.977Z,0.00
2018-11-27T06:09:04.977Z,0.00
2018-11-27T06:11:36.698Z,0.00
2018-11-27T06:12:36.701Z,0.00
2018-11-27T06:13:40.197Z,0.00
2018-11-27T06:14:58.202Z,0.00
2018-11-27T06:15:37.214Z,0.00
2018-11-27T06:16:58.205Z,0.00
2018-11-27T06:17:37.206Z,0.00
2018-11-27T06:18:41.210Z,0.00
2018-11-27T06:19:37.702Z,0.00
2018-11-27T06:20:58.703Z,0.00
2018-11-27T06:21:37.702Z,0.00
2018-11-27T06:22:59.202Z,0.00
2018-11-27T06:23:38.259Z,0.00
2018-11-27T06:24:42.211Z,0.00
2018-11-27T06:25:38.202Z,0.00
2018-11-27T06:28:31.438Z,0.00
2018-11-27T06:29:32.373Z,0.00
2018-11-27T06:30:13.993Z,0.00
2018-11-27T06:31:10.995Z,0.00
2018-11-27T06:32:12.372Z,0.00
2018-11-27T06:33:10.940Z,0.00
2018-11-27T06:34:10.943Z,4.00
2018-11-27T06:35:35.938Z,4.00
2018-11-27T06:36:11.438Z,4.00
2018-11-27T06:37:11.439Z,0.00
2018-11-27T06:38:11.446Z,0.00
2018-11-27T06:39:11.438Z,4.00
2018-11-27T06:40:13.937Z,4.00
2018-11-27T06:41:14.938Z,4.00
2018-11-27T06:42:11.947Z,4.00
2018-11-27T06:43:32.933Z,4.00
2018-11-27T06:45:46.665Z,8.00
2018-11-27T06:48:20.059Z,4.00
2018-11-27T06:49:20.067Z,8.00
2018-11-27T06:50:20.076Z,8.00
2018-11-27T06:51:41.565Z,8.00
2018-11-27T06:54:18.185Z,8.00
2018-11-27T06:54:55.734Z,12.00
2018-11-27T06:55:55.740Z,12.00
2018-11-27T06:56:56.235Z,16.00
2018-11-27T06:58:01.165Z,16.00
2018-11-27T06:58:56.240Z,16.00
2018-11-27T06:59:56.252Z,16.00
2018-11-27T07:00:56.230Z,20.00
2018-11-27T07:02:04.205Z,16.00
2018-11-27T07:03:27.259Z,16.00
2018-11-27T07:03:56.735Z,20.00
2018-11-27T07:04:56.727Z,24.00
2018-11-27T07:09:18.362Z,32.00
2018-11-27T07:13:24.619Z,36.00
2018-11-27T07:14:07.685Z,36.00
2018-11-27T07:15:03.627Z,40.00
2018-11-27T07:16:03.632Z,44.00
2018-11-27T07:18:35.345Z,48.00
2018-11-27T07:19:38.857Z,48.00
2018-11-27T07:20:35.419Z,48.00
2018-11-27T07:21:58.861Z,52.00
2018-11-27T07:22:56.855Z,56.00
2018-11-27T07:25:10.714Z,64.00
2018-11-27T07:26:07.721Z,68.00
2018-11-27T07:27:07.721Z,76.00
2018-11-27T07:28:29.222Z,80.00
2018-11-27T07:31:04.080Z,84.00
2018-11-27T07:31:39.615Z,88.00
2018-11-27T07:33:00.574Z,84.00
2018-11-27T07:33:39.165Z,88.00
2018-11-27T07:36:15.881Z,92.00
2018-11-27T07:37:33.398Z,100.00
2018-11-27T07:39:43.882Z,116.00
2018-11-27T07:40:43.888Z,120.00
2018-11-27T07:41:47.377Z,128.00
2018-11-27T07:42:50.413Z,124.00
2018-11-27T07:44:05.379Z,120.00
2018-11-27T07:44:47.865Z,124.00
2018-11-27T07:47:19.103Z,140.00
2018-11-27T07:48:16.102Z,144.00
2018-11-27T07:49:16.097Z,152.00
2018-11-27T07:50:16.606Z,156.00
2018-11-27T07:52:51.949Z,176.00
2018-11-27T07:53:47.949Z,184.00
2018-11-27T07:54:47.950Z,196.00
2018-11-27T07:55:48.451Z,200.00
2018-11-27T07:56:48.460Z,196.00
2018-11-27T07:57:48.448Z,200.00
2018-11-27T07:58:51.965Z,200.00
2018-11-27T08:00:09.950Z,208.00
2018-11-27T08:01:15.949Z,216.00
2018-11-27T08:01:48.301Z,232.00
2018-11-27T08:02:54.954Z,240.00
2018-11-27T08:04:15.381Z,244.00
2018-11-27T08:06:35.860Z,264.00
2018-11-27T08:07:23.794Z,268.00
2018-11-27T08:08:43.752Z,268.00
2018-11-27T08:09:31.798Z,276.00
2018-11-27T08:10:42.798Z,284.00
2018-11-27T08:11:21.799Z,288.00
2018-11-27T08:12:36.296Z,296.00
2018-11-27T08:14:56.464Z,304.00
2018-11-27T08:15:55.671Z,316.00
2018-11-27T08:16:55.126Z,324.00
2018-11-27T08:19:25.346Z,368.00
2018-11-27T08:20:28.852Z,372.00
2018-11-27T08:21:25.352Z,376.00
2018-11-27T08:22:24.940Z,384.00
2018-11-27T08:24:56.449Z,420.00
2018-11-27T08:26:21.166Z,416.00
2018-11-27T08:26:57.174Z,416.00
2018-11-27T08:31:39.798Z,460.00
2018-11-27T08:32:21.809Z,480.00
2018-11-27T08:33:02.274Z,508.00
2018-11-27T08:35:32.493Z,676.00
2018-11-27T08:36:36.027Z,696.00
2018-11-27T08:37:32.509Z,684.00
2018-11-27T08:38:32.089Z,672.00
2018-11-27T08:39:53.152Z,640.00
2018-11-27T08:40:53.999Z,620.00
2018-11-27T08:41:58.460Z,608.00
2018-11-27T08:42:32.997Z,608.00
2018-11-27T08:43:56.499Z,596.00
2018-11-27T08:44:47.507Z,580.00
2018-11-27T08:45:39.498Z,576.00
2018-11-27T08:46:57.999Z,568.00
2018-11-27T08:47:33.097Z,580.00
2018-11-27T08:50:05.809Z,576.00
2018-11-27T08:51:28.846Z,556.00
2018-11-27T08:53:40.527Z,516.00
2018-11-27T08:54:40.542Z,508.00
2018-11-27T08:55:40.534Z,504.00
2018-11-27T08:57:16.034Z,512.00
2018-11-27T08:57:46.967Z,520.00
2018-11-27T08:58:40.370Z,528.00
2018-11-27T09:00:02.035Z,524.00
2018-11-27T09:00:41.037Z,528.00
2018-11-27T09:02:01.611Z,540.00
2018-11-27T09:02:41.534Z,564.00
2018-11-27T09:04:05.050Z,576.00
2018-11-27T09:06:13.023Z,572.00
2018-11-27T09:07:13.027Z,572.00
2018-11-27T09:08:13.028Z,568.00
2018-11-27T09:09:15.685Z,556.00
2018-11-27T09:10:12.773Z,560.00
2018-11-27T09:12:45.493Z,564.00
2018-11-27T09:13:59.500Z,564.00
2018-11-27T09:14:48.284Z,552.00
2018-11-27T09:17:17.260Z,572.00
2018-11-27T09:18:19.697Z,580.00
2018-11-27T09:19:17.260Z,584.00
2018-11-27T09:20:55.761Z,600.00
2018-11-27T09:21:38.763Z,600.00
2018-11-27T09:22:38.765Z,616.00
2018-11-27T09:23:41.696Z,644.00
2018-11-27T09:24:19.472Z,660.00
2018-11-27T09:25:42.773Z,708.00
2018-11-27T09:26:17.767Z,792.00
2018-11-27T09:27:18.261Z,864.00
2018-11-27T09:28:18.260Z,812.00
2018-11-27T09:29:17.597Z,780.00
2018-11-27T09:30:18.260Z,848.00
2018-11-27T09:31:23.216Z,888.00
2018-11-27T09:32:38.784Z,872.00
2018-11-27T09:33:39.766Z,824.00
2018-11-27T09:34:39.761Z,840.00
2018-11-27T09:35:24.761Z,856.00
2018-11-27T09:37:57.322Z,884.00
2018-11-27T09:38:55.858Z,892.00
2018-11-27T09:40:15.888Z,876.00
2018-11-27T09:40:54.122Z,860.00
2018-11-27T09:42:19.386Z,868.00
2018-11-27T09:42:54.888Z,884.00
2018-11-27T09:45:27.114Z,948.00
2018-11-27T09:46:29.115Z,1004.00
2018-11-27T09:47:31.114Z,984.00
2018-11-27T09:48:41.114Z,988.00
2018-11-27T09:49:27.621Z,1048.00
2018-11-27T09:50:28.048Z,1128.00
2018-11-27T09:51:26.916Z,1192.00
2018-11-27T09:52:27.620Z,1176.00
2018-11-27T09:53:31.144Z,1232.00
2018-11-27T09:54:49.114Z,1384.00
2018-11-27T09:55:49.113Z,1480.00
2018-11-27T09:56:49.113Z,1624.00
2018-11-27T09:57:49.119Z,1560.00
2018-11-27T09:58:59.610Z,1568.00
2018-11-27T09:59:30.613Z,1672.00
2018-11-27T10:00:28.612Z,1792.00
2018-11-27T10:03:55.483Z,1888.00
2018-11-27T10:04:51.256Z,1888.00
2018-11-27T10:06:11.565Z,1924.00
2018-11-27T10:06:51.247Z,2012.00
2018-11-27T10:07:51.250Z,2108.00
2018-11-27T10:09:23.692Z,2120.00
2018-11-27T10:12:55.265Z,2108.00
2018-11-27T10:14:19.773Z,2160.00
2018-11-27T10:14:55.279Z,2236.00
2018-11-27T10:15:55.773Z,2240.00
2018-11-27T10:18:27.127Z,2280.00
2018-11-27T10:19:30.125Z,2292.00
2018-11-27T10:21:59.345Z,2532.00
2018-11-27T10:22:59.353Z,2772.00
2018-11-27T10:23:59.353Z,2916.00
2018-11-27T10:25:03.357Z,2892.00
2018-11-27T10:27:30.483Z,2680.00
2018-11-27T10:28:32.259Z,2740.00
2018-11-27T10:29:30.634Z,2800.00
2018-11-27T10:30:58.204Z,3060.00
2018-11-27T10:31:31.707Z,3336.00
2018-11-27T10:32:31.703Z,3652.00
2018-11-27T10:33:31.713Z,3836.00
2018-11-27T10:34:31.170Z,3880.00
2018-11-27T10:36:05.174Z,3904.00
2018-11-27T10:36:32.204Z,4024.00
2018-11-27T10:37:32.204Z,4104.00
2018-11-27T10:38:32.218Z,4036.00
2018-11-27T10:39:32.704Z,4180.00
2018-11-27T10:40:32.709Z,4312.00
2018-11-27T10:43:21.638Z,4568.00
2018-11-27T10:45:41.614Z,4460.00
2018-11-27T10:48:14.710Z,4972.00
2018-11-27T10:49:16.898Z,4976.00
2018-11-27T10:50:15.434Z,5000.00
2018-11-27T10:51:17.931Z,4800.00
2018-11-27T10:52:41.399Z,4560.00
2018-11-27T10:53:17.383Z,5548.00
2018-11-27T10:54:15.937Z,5140.00
2018-11-27T10:55:15.931Z,4580.00
2018-11-27T10:56:36.498Z,3972.00
2018-11-27T10:57:20.430Z,3628.00
2018-11-27T10:58:16.458Z,4084.00
2018-11-27T10:59:16.430Z,4852.00
2018-11-27T11:00:16.490Z,5276.00
2018-11-27T11:01:38.391Z,5484.00
2018-11-27T11:02:16.930Z,5092.00
2018-11-27T11:03:42.448Z,4388.00
2018-11-27T11:04:39.395Z,3728.00
2018-11-27T11:05:16.938Z,3568.00
2018-11-27T11:06:16.932Z,3908.00
2018-11-27T11:08:58.149Z,4516.00
2018-11-27T11:10:09.657Z,4224.00
2018-11-27T11:12:21.261Z,3724.00
2018-11-27T11:13:21.201Z,3984.00
2018-11-27T11:14:45.775Z,4640.00
2018-11-27T11:15:21.265Z,4596.00
2018-11-27T11:16:20.740Z,3940.00
2018-11-27T11:17:42.764Z,3516.00
2018-11-27T11:18:56.769Z,3240.00
2018-11-27T11:19:24.768Z,2892.00
2018-11-27T11:20:21.764Z,2684.00
2018-11-27T11:21:42.765Z,2632.00
2018-11-27T11:22:22.265Z,2932.00
2018-11-27T11:23:22.265Z,3528.00
2018-11-27T11:24:27.236Z,4524.00
2018-11-27T11:25:22.265Z,5500.00
2018-11-27T11:26:43.763Z,7024.00
2018-11-27T11:28:54.112Z,5220.00
2018-11-27T11:29:57.620Z,10744.00
2018-11-27T11:30:54.123Z,11212.00
2018-11-27T11:32:00.623Z,13392.00
2018-11-27T11:33:14.857Z,10300.00
2018-11-27T11:33:54.621Z,5556.00
2018-11-27T11:36:30.076Z,3600.00
2018-11-27T11:37:30.084Z,3396.00
2018-11-27T11:38:30.082Z,3344.00
2018-11-27T11:42:36.141Z,4084.00
2018-11-27T11:43:56.467Z,3832.00
2018-11-27T11:44:37.120Z,3608.00
2018-11-27T11:47:34.773Z,3312.00
2018-11-27T11:48:28.841Z,3508.00
2018-11-27T11:49:07.906Z,3668.00
2018-11-27T11:50:28.406Z,4020.00
2018-11-27T11:53:08.633Z,4128.00
2018-11-27T11:53:40.634Z,3996.00
2018-11-27T11:54:40.654Z,4192.00
2018-11-27T11:55:40.648Z,4000.00
2018-11-27T11:57:04.143Z,3952.00
2018-11-27T12:01:09.248Z,3260.00
2018-11-27T12:01:48.249Z,3372.00
2018-11-27T12:03:09.314Z,3264.00
2018-11-27T12:04:09.748Z,3528.00
2018-11-27T12:04:52.748Z,4596.00
2018-11-27T12:07:20.701Z,5504.00
2018-11-27T12:08:20.031Z,5736.00
2018-11-27T12:09:41.602Z,6164.00
2018-11-27T12:10:44.339Z,10812.00
2018-11-27T12:11:21.101Z,10312.00
2018-11-27T12:12:21.101Z,10836.00
2018-11-27T12:13:21.108Z,6832.00
2018-11-27T12:14:21.601Z,7672.00
2018-11-27T12:15:24.533Z,5820.00
2018-11-27T12:16:24.050Z,4132.00
2018-11-27T12:17:21.602Z,3568.00
2018-11-27T12:18:21.611Z,3088.00
2018-11-27T12:19:22.100Z,2728.00
2018-11-27T12:20:22.100Z,2492.00
2018-11-27T12:21:25.097Z,2336.00
2018-11-27T12:22:22.101Z,2168.00
2018-11-27T12:24:54.321Z,2056.00
2018-11-27T12:25:54.329Z,2136.00
2018-11-27T12:27:18.829Z,2212.00
2018-11-27T12:27:54.833Z,2272.00
2018-11-27T12:28:54.038Z,2248.00
2018-11-27T12:29:54.829Z,2220.00
2018-11-27T12:31:17.267Z,2276.00
2018-11-27T12:31:58.842Z,2492.00
2018-11-27T12:32:55.328Z,2616.00
2018-11-27T12:34:17.261Z,2684.00
2018-11-27T12:34:55.327Z,2924.00
2018-11-27T12:35:55.415Z,3084.00
2018-11-27T12:37:09.825Z,3392.00
2018-11-27T12:37:58.829Z,3708.00
2018-11-27T12:39:27.761Z,3748.00
2018-11-27T12:39:55.826Z,3600.00
2018-11-27T12:40:56.325Z,3416.00
2018-11-27T12:42:02.261Z,3260.00
2018-11-27T12:44:53.114Z,3088.00
2018-11-27T12:45:32.131Z,3188.00
2018-11-27T12:46:32.122Z,3320.00
2018-11-27T12:47:55.623Z,3432.00
2018-11-27T12:48:36.121Z,3496.00
2018-11-27T12:49:32.628Z,3532.00
2018-11-27T12:50:32.621Z,3328.00
2018-11-27T12:51:54.124Z,2988.00
2018-11-27T12:52:32.344Z,2684.00
2018-11-27T12:53:37.143Z,2508.00
2018-11-27T12:54:33.117Z,2556.00
2018-11-27T12:55:33.621Z,2680.00
2018-11-27T12:56:54.621Z,2868.00
2018-11-27T12:57:35.054Z,3036.00
2018-11-27T12:58:33.630Z,3212.00
2018-11-27T12:59:42.092Z,3220.00
2018-11-27T13:00:34.126Z,3092.00
2018-11-27T13:01:36.124Z,2888.00
2018-11-27T13:02:34.121Z,2668.00
2018-11-27T13:03:34.120Z,2572.00
2018-11-27T13:04:57.783Z,2516.00
2018-11-27T13:05:55.623Z,2456.00
2018-11-27T13:06:34.620Z,2396.00
2018-11-27T13:09:05.383Z,2488.00
2018-11-27T13:10:09.601Z,2592.00
2018-11-27T13:11:27.095Z,2824.00
2018-11-27T13:12:06.597Z,3108.00
2018-11-27T13:13:29.601Z,3468.00
2018-11-27T13:14:07.551Z,3832.00
2018-11-27T13:15:06.600Z,3852.00
2018-11-27T13:16:11.096Z,3392.00
2018-11-27T13:17:06.189Z,3064.00
2018-11-27T13:18:09.096Z,3156.00
2018-11-27T13:19:07.097Z,3428.00
2018-11-27T13:20:07.098Z,3484.00
2018-11-27T13:21:07.093Z,3536.00
2018-11-27T13:23:42.758Z,2916.00
2018-11-27T13:24:42.316Z,2740.00
2018-11-27T13:25:45.253Z,2524.00
2018-11-27T13:28:18.037Z,2572.00
2018-11-27T13:29:13.375Z,2600.00
2018-11-27T13:30:14.040Z,2476.00
2018-11-27T13:31:14.052Z,2248.00
2018-11-27T13:32:16.010Z,2128.00
2018-11-27T13:33:14.548Z,2048.00
2018-11-27T13:34:18.038Z,2020.00
2018-11-27T13:35:14.012Z,2016.00
2018-11-27T13:36:15.049Z,2000.00
2018-11-27T13:37:15.050Z,2000.00
2018-11-27T13:38:15.041Z,2040.00
2018-11-27T13:39:15.042Z,2132.00
2018-11-27T13:40:41.975Z,2200.00
2018-11-27T13:42:46.768Z,2404.00
2018-11-27T13:43:46.775Z,2368.00
2018-11-27T13:44:46.772Z,2276.00
2018-11-27T13:45:56.825Z,2168.00
2018-11-27T13:49:51.494Z,2036.00
2018-11-27T13:50:55.494Z,2096.00
2018-11-27T13:51:50.059Z,2220.00
2018-11-27T13:54:21.783Z,2636.00
2018-11-27T13:55:21.792Z,2776.00
2018-11-27T13:56:25.299Z,2948.00
2018-11-27T13:57:28.297Z,3120.00
2018-11-27T13:58:22.288Z,3232.00
2018-11-27T13:59:30.255Z,3212.00
2018-11-27T14:00:23.244Z,3072.00
2018-11-27T14:01:46.787Z,2848.00
2018-11-27T14:02:45.224Z,2616.00
2018-11-27T14:03:22.001Z,2428.00
2018-11-27T14:04:43.787Z,2324.00
2018-11-27T14:05:22.130Z,2324.00
2018-11-27T14:06:22.786Z,2344.00
2018-11-27T14:07:26.786Z,2304.00
2018-11-27T14:08:23.314Z,2252.00
2018-11-27T14:09:23.291Z,2304.00
2018-11-27T14:10:23.287Z,2340.00
2018-11-27T14:11:22.886Z,2300.00
2018-11-27T14:12:26.786Z,2244.00
2018-11-27T14:13:25.221Z,2144.00
2018-11-27T14:14:23.849Z,2028.00
2018-11-27T14:15:24.723Z,1956.00
2018-11-27T14:16:46.736Z,1980.00
2018-11-27T14:17:27.794Z,2008.00
2018-11-27T14:18:23.625Z,1964.00
2018-11-27T14:19:24.287Z,1856.00
2018-11-27T14:20:24.284Z,1760.00
2018-11-27T14:22:00.756Z,1684.00
2018-11-27T14:22:49.290Z,1584.00
2018-11-27T14:23:24.804Z,1468.00
2018-11-27T14:24:24.785Z,1376.00
2018-11-27T14:25:25.284Z,1296.00
2018-11-27T14:26:26.718Z,1220.00
2018-11-27T14:27:27.718Z,1144.00
2018-11-27T14:28:29.285Z,1084.00
2018-11-27T14:29:25.289Z,1040.00
2018-11-27T14:30:25.784Z,1020.00
2018-11-27T14:31:31.785Z,1016.00
2018-11-27T14:34:00.020Z,1024.00
2018-11-27T14:34:59.888Z,1028.00
2018-11-27T14:35:57.272Z,1024.00
2018-11-27T14:36:59.206Z,1012.00
2018-11-27T14:38:20.775Z,996.00
2018-11-27T14:38:56.996Z,980.00
2018-11-27T14:40:01.034Z,972.00
2018-11-27T14:40:59.785Z,976.00
2018-11-27T14:41:57.769Z,980.00
2018-11-27T14:43:00.311Z,980.00
2018-11-27T14:44:04.272Z,960.00
2018-11-27T14:44:58.272Z,932.00
2018-11-27T14:46:21.778Z,920.00
2018-11-27T14:47:00.771Z,932.00
2018-11-27T14:47:58.781Z,944.00
2018-11-27T14:48:58.772Z,956.00
2018-11-27T14:50:03.991Z,940.00
2018-11-27T14:51:16.770Z,924.00
2018-11-27T14:51:59.270Z,892.00
2018-11-27T14:52:59.271Z,848.00
2018-11-27T14:53:59.344Z,772.00
2018-11-27T14:54:59.775Z,696.00
2018-11-27T14:55:58.862Z,644.00
2018-11-27T14:58:34.265Z,584.00
2018-11-27T14:59:38.779Z,548.00
2018-11-27T15:00:34.278Z,516.00
2018-11-27T15:01:34.771Z,484.00
2018-11-27T15:02:37.785Z,456.00
2018-11-27T15:03:34.772Z,424.00
2018-11-27T15:04:34.772Z,388.00
2018-11-27T15:05:58.289Z,356.00
2018-11-27T15:06:35.302Z,332.00
2018-11-27T15:07:37.272Z,308.00
2018-11-27T15:08:59.773Z,288.00
2018-11-27T15:09:34.862Z,272.00
2018-11-27T15:10:40.205Z,252.00
2018-11-27T15:11:35.771Z,236.00
2018-11-27T15:12:35.770Z,216.00
2018-11-27T15:13:36.271Z,200.00
2018-11-27T15:14:39.271Z,184.00
2018-11-27T15:15:36.268Z,172.00
2018-11-27T15:16:35.736Z,164.00
2018-11-27T15:19:28.957Z,140.00
2018-11-27T15:20:10.982Z,128.00
2018-11-27T15:21:08.031Z,120.00
2018-11-27T15:23:59.877Z,100.00
2018-11-27T15:25:00.633Z,88.00
2018-11-27T15:26:04.612Z,80.00
2018-11-27T15:27:01.202Z,72.00
2018-11-27T15:27:40.132Z,64.00
2018-11-27T15:28:41.107Z,60.00
2018-11-27T15:29:40.137Z,56.00
2018-11-27T15:32:36.296Z,44.00
2018-11-27T15:33:18.712Z,40.00
2018-11-27T15:34:15.301Z,32.00
2018-11-27T15:35:15.881Z,28.00
2018-11-27T15:36:19.302Z,24.00
2018-11-27T15:37:15.809Z,20.00
2018-11-27T15:38:15.800Z,16.00
2018-11-27T15:39:15.798Z,16.00
2018-11-27T15:40:18.735Z,12.00
2018-11-27T15:41:17.734Z,8.00
2018-11-27T15:43:56.951Z,8.00
2018-11-27T15:46:22.416Z,4.00
2018-11-27T15:47:46.923Z,4.00
2018-11-27T15:48:21.892Z,4.00
2018-11-27T15:49:43.930Z,4.00
2018-11-27T15:50:22.924Z,0.00
2018-11-27T15:51:22.921Z,4.00
2018-11-27T15:52:26.921Z,4.00